createdAt,value
2018-12-22T00:02:01.561Z,236.93
2018-12-22T00:04:30.323Z,255.77
2018-12-22T00:06:59.044Z,217.80
2018-12-22T00:09:27.793Z,204.80
2018-12-22T00:11:56.540Z,215.50
2018-12-22T00:14:25.230Z,226.33
2018-12-22T00:16:54.059Z,215.07
2018-12-22T00:19:22.759Z,226.80
2018-12-22T00:21:51.483Z,187.13
2018-12-22T00:24:20.265Z,216.20
2018-12-22T00:26:49.020Z,213.30
2018-12-22T00:29:17.685Z,224.70
2018-12-22T00:31:46.330Z,188.67
2018-12-22T00:34:15.075Z,185.03
2018-12-22T00:36:43.837Z,180.40
2018-12-22T00:39:12.619Z,197.03
2018-12-22T00:41:41.402Z,220.40
2018-12-22T00:44:10.147Z,188.13
2018-12-22T00:46:38.897Z,239.57
2018-12-22T00:49:07.693Z,216.67
2018-12-22T00:51:36.504Z,257.47
2018-12-22T00:54:05.547Z,202.80
2018-12-22T00:56:34.326Z,186.30
2018-12-22T00:59:03.040Z,244.77
2018-12-22T01:01:31.804Z,216.50
2018-12-22T01:04:00.594Z,195.47
2018-12-22T01:06:29.380Z,260.57
2018-12-22T01:08:58.582Z,183.53
2018-12-22T01:11:27.419Z,214.90
2018-12-22T01:13:56.183Z,245.00
2018-12-22T01:16:24.862Z,176.80
2018-12-22T01:18:53.606Z,185.23
2018-12-22T01:21:22.349Z,184.43
2018-12-22T01:23:51.889Z,168.57
2018-12-22T01:26:21.420Z,173.83
2018-12-22T01:28:50.168Z,176.97
2018-12-22T01:31:18.829Z,195.23
2018-12-22T01:33:47.540Z,176.63
2018-12-22T01:36:16.342Z,182.90
2018-12-22T01:38:45.110Z,168.73
2018-12-22T01:41:13.887Z,160.87
2018-12-22T01:43:42.632Z,175.70
2018-12-22T01:46:11.378Z,201.97
2018-12-22T01:48:40.086Z,167.37
2018-12-22T01:51:08.861Z,179.87
2018-12-22T01:53:37.690Z,198.77
2018-12-22T01:56:06.436Z,203.13
2018-12-22T01:58:35.188Z,178.20
2018-12-22T02:01:04.412Z,157.23
2018-12-22T02:03:33.172Z,170.50
2018-12-22T02:06:02.002Z,172.17
2018-12-22T02:08:30.763Z,194.37
2018-12-22T02:10:59.511Z,163.67
2018-12-22T02:13:28.320Z,151.90
2018-12-22T02:15:57.109Z,170.50
2018-12-22T02:18:25.887Z,204.57
2018-12-22T02:20:54.579Z,156.20
2018-12-22T02:23:23.302Z,139.87
2018-12-22T02:25:52.230Z,161.30
2018-12-22T02:28:20.964Z,156.57
2018-12-22T02:30:50.032Z,150.63
2018-12-22T02:33:18.813Z,139.37
2018-12-22T02:35:47.676Z,152.57
2018-12-22T02:38:16.439Z,164.20
2018-12-22T02:40:45.222Z,162.43
2018-12-22T02:43:14.007Z,149.37
2018-12-22T02:45:42.730Z,150.87
2018-12-22T02:48:11.533Z,131.70
2018-12-22T02:50:40.232Z,145.20
2018-12-22T02:53:09.122Z,163.20
2018-12-22T02:55:37.941Z,162.67
2018-12-22T02:58:06.926Z,149.03
2018-12-22T03:00:35.628Z,148.63
2018-12-22T03:03:04.885Z,151.43
2018-12-22T03:05:33.693Z,140.60
2018-12-22T03:08:02.422Z,151.97
2018-12-22T03:10:31.222Z,161.40
2018-12-22T03:12:59.913Z,160.70
2018-12-22T03:15:28.624Z,135.60
2018-12-22T03:17:57.352Z,147.33
2018-12-22T03:20:26.101Z,169.33
2018-12-22T03:22:54.814Z,165.53
2018-12-22T03:25:23.568Z,157.00
2018-12-22T03:27:52.258Z,168.40
2018-12-22T03:30:21.016Z,184.73
2018-12-22T03:32:49.851Z,160.93
2018-12-22T03:35:19.266Z,155.23
2018-12-22T03:37:48.015Z,161.77
2018-12-22T03:40:16.818Z,146.13
2018-12-22T03:42:45.570Z,178.00
2018-12-22T03:45:14.339Z,158.80
2018-12-22T03:47:43.133Z,163.17
2018-12-22T03:50:11.901Z,150.87
2018-12-22T03:52:40.634Z,145.13
2018-12-22T03:55:09.757Z,142.77
2018-12-22T03:57:38.466Z,150.83
2018-12-22T04:00:11.471Z,150.63
2018-12-22T04:02:40.194Z,140.03
2018-12-22T04:05:09.025Z,156.70
2018-12-22T04:07:37.807Z,150.20
2018-12-22T04:10:07.504Z,148.07
2018-12-22T04:12:36.231Z,154.57
2018-12-22T04:15:05.957Z,161.30
2018-12-22T04:17:34.821Z,152.07
2018-12-22T04:20:04.871Z,150.63
2018-12-22T04:22:33.850Z,174.53
2018-12-22T04:25:02.591Z,157.37
2018-12-22T04:27:31.312Z,163.10
2018-12-22T04:30:00.020Z,158.77
2018-12-22T04:32:28.744Z,161.07
2018-12-22T04:34:57.448Z,158.70
2018-12-22T04:37:26.272Z,160.33
2018-12-22T04:39:54.999Z,158.63
2018-12-22T04:42:23.750Z,161.43
2018-12-22T04:44:52.444Z,143.00
2018-12-22T04:47:21.306Z,148.23
2018-12-22T04:49:50.077Z,155.57
2018-12-22T04:52:18.826Z,169.40
2018-12-22T04:54:47.497Z,148.30
2018-12-22T04:57:16.282Z,164.77
2018-12-22T04:59:45.004Z,176.50
2018-12-22T05:02:13.726Z,164.60
2018-12-22T05:04:42.443Z,163.60
2018-12-22T05:07:11.159Z,162.13
2018-12-22T05:09:39.845Z,165.20
2018-12-22T05:12:08.663Z,159.23
2018-12-22T05:14:37.372Z,156.53
2018-12-22T05:17:06.188Z,175.53
2018-12-22T05:19:34.972Z,168.57
2018-12-22T05:22:03.686Z,183.07
2018-12-22T05:24:32.477Z,168.30
2018-12-22T05:27:01.246Z,168.63
2018-12-22T05:29:29.994Z,180.53
2018-12-22T05:31:58.706Z,160.17
2018-12-22T05:34:27.383Z,157.93
2018-12-22T05:36:56.169Z,165.87
2018-12-22T05:39:24.939Z,158.47
2018-12-22T05:41:53.702Z,155.13
2018-12-22T05:44:22.594Z,178.07
2018-12-22T05:46:51.333Z,169.40
2018-12-22T05:49:23.300Z,171.10
2018-12-22T05:51:51.993Z,169.20
2018-12-22T05:54:20.810Z,178.13
2018-12-22T05:56:49.568Z,170.77
2018-12-22T05:59:18.300Z,162.67
2018-12-22T06:01:47.001Z,180.80
2018-12-22T06:04:15.704Z,174.27
2018-12-22T06:06:44.461Z,170.40
2018-12-22T06:09:13.219Z,188.83
2018-12-22T06:11:41.957Z,178.60
2018-12-22T06:14:10.706Z,185.17
2018-12-22T06:16:39.478Z,180.47
2018-12-22T06:19:08.435Z,193.97
2018-12-22T06:21:37.259Z,174.43
2018-12-22T06:24:05.954Z,175.63
2018-12-22T06:26:34.681Z,181.47
2018-12-22T06:29:03.472Z,181.73
2018-12-22T06:31:32.202Z,170.57
2018-12-22T06:34:00.870Z,163.77
2018-12-22T06:36:29.692Z,168.33
2018-12-22T06:38:58.468Z,150.20
2018-12-22T06:41:27.287Z,157.63
2018-12-22T06:43:55.980Z,141.67
2018-12-22T06:46:24.680Z,160.23
2018-12-22T06:48:53.386Z,165.43
2018-12-22T06:51:22.158Z,167.30
2018-12-22T06:53:50.899Z,167.67
2018-12-22T06:56:19.761Z,177.83
2018-12-22T06:58:48.578Z,180.33
2018-12-22T07:01:17.290Z,184.00
2018-12-22T07:03:46.294Z,157.60
2018-12-22T07:06:15.054Z,176.93
2018-12-22T07:08:43.723Z,184.07
2018-12-22T07:11:12.490Z,156.10
2018-12-22T07:13:41.179Z,192.00
2018-12-22T07:16:10.105Z,178.00
2018-12-22T07:18:38.800Z,186.53
2018-12-22T07:21:07.572Z,165.03
2018-12-22T07:23:36.462Z,176.23
2018-12-22T07:26:05.604Z,166.03
2018-12-22T07:28:34.528Z,173.60
2018-12-22T07:31:03.345Z,170.93
2018-12-22T07:33:32.745Z,162.50
2018-12-22T07:36:01.439Z,175.57
2018-12-22T07:38:30.241Z,170.07
2018-12-22T07:40:59.039Z,180.30
2018-12-22T07:43:27.865Z,175.07
2018-12-22T07:45:56.607Z,174.07
2018-12-22T07:48:25.349Z,178.63
2018-12-22T07:50:54.078Z,168.83
2018-12-22T07:53:22.828Z,159.20
2018-12-22T07:55:51.755Z,184.30
2018-12-22T07:58:20.609Z,173.80
2018-12-22T08:00:49.436Z,176.20
2018-12-22T08:03:18.277Z,172.60
2018-12-22T08:05:47.300Z,162.03
2018-12-22T08:08:16.098Z,182.23
2018-12-22T08:10:44.778Z,170.73
2018-12-22T08:13:13.575Z,176.73
2018-12-22T08:15:43.143Z,184.57
2018-12-22T08:18:12.692Z,173.17
2018-12-22T08:20:41.467Z,165.33
2018-12-22T08:23:10.301Z,163.47
2018-12-22T08:25:39.071Z,185.57
2018-12-22T08:28:07.800Z,167.67
2018-12-22T08:30:43.510Z,167.77
2018-12-22T08:33:07.414Z,184.87
2018-12-22T08:35:36.158Z,169.20
2018-12-22T08:38:05.000Z,196.97
2018-12-22T08:40:33.778Z,171.23
2018-12-22T08:43:02.677Z,177.70
2018-12-22T08:45:31.428Z,170.93
2018-12-22T08:50:38.256Z,176.83
2018-12-22T08:53:07.420Z,191.17
2018-12-22T08:55:36.133Z,193.20
2018-12-22T08:58:04.890Z,210.50
2018-12-22T09:00:33.664Z,178.37
2018-12-22T09:03:02.451Z,189.03
2018-12-22T09:05:31.194Z,205.00
2018-12-22T09:07:59.919Z,180.30
2018-12-22T09:10:29.089Z,190.27
2018-12-22T09:12:57.924Z,192.87
2018-12-22T09:15:26.665Z,204.57
2018-12-22T09:17:55.565Z,199.37
2018-12-22T09:20:24.408Z,199.93
2018-12-22T09:22:53.254Z,205.07
2018-12-22T09:25:22.085Z,214.63
2018-12-22T09:27:50.867Z,200.53
2018-12-22T09:30:19.786Z,207.80
2018-12-22T09:32:48.440Z,207.83
2018-12-22T09:35:17.160Z,215.60
2018-12-22T09:37:46.424Z,201.80
2018-12-22T09:40:15.166Z,195.23
2018-12-22T09:42:43.881Z,210.37
2018-12-22T09:45:12.639Z,214.93
2018-12-22T09:47:41.380Z,211.30
2018-12-22T09:50:13.195Z,213.80
2018-12-22T09:52:42.217Z,203.50
2018-12-22T09:55:10.939Z,210.37
2018-12-22T09:57:39.699Z,211.67
2018-12-22T10:00:13.221Z,198.83
2018-12-22T10:02:42.350Z,197.53
2018-12-22T10:05:11.061Z,207.97
2018-12-22T10:07:39.854Z,205.80
2018-12-22T10:10:14.408Z,206.10
2018-12-22T10:12:43.135Z,202.77
2018-12-22T10:15:11.916Z,202.77
2018-12-22T10:17:40.865Z,202.70
2018-12-22T10:20:09.909Z,188.43
2018-12-22T10:22:38.644Z,205.20
2018-12-22T10:25:10.355Z,206.37
2018-12-22T10:27:39.128Z,198.17
2018-12-22T10:30:15.683Z,208.17
2018-12-22T10:32:44.482Z,211.50
2018-12-22T10:35:23.557Z,227.67
2018-12-22T10:37:52.324Z,230.53
2018-12-22T10:40:21.165Z,217.30
2018-12-22T10:42:49.965Z,231.10
2018-12-22T10:45:18.687Z,222.83
2018-12-22T10:47:47.446Z,214.93
2018-12-22T10:50:16.254Z,219.43
2018-12-22T10:52:44.997Z,236.60
2018-12-22T10:55:13.696Z,232.53
2018-12-22T10:57:42.471Z,226.13
2018-12-22T11:00:14.188Z,228.60
2018-12-22T11:02:43.002Z,232.40
2018-12-22T11:05:13.367Z,229.20
2018-12-22T11:07:43.202Z,233.10
2018-12-22T11:10:20.441Z,223.33
2018-12-22T11:12:49.184Z,231.27
2018-12-22T11:15:17.945Z,233.90
2018-12-22T11:17:47.145Z,231.60
2018-12-22T11:20:16.335Z,224.00
2018-12-22T11:22:45.050Z,229.93
2018-12-22T11:25:16.768Z,206.90
2018-12-22T11:27:46.004Z,217.83
2018-12-22T11:30:19.712Z,220.97
2018-12-22T11:32:48.562Z,218.23
2018-12-22T11:35:17.428Z,226.37
2018-12-22T11:37:46.153Z,230.63
2018-12-22T11:40:14.873Z,216.27
2018-12-22T11:42:47.669Z,228.47
2018-12-22T11:45:14.388Z,227.77
2018-12-22T11:47:57.089Z,228.13
2018-12-22T11:50:27.317Z,244.63
2018-12-22T11:52:56.218Z,226.93
2018-12-22T11:55:24.987Z,256.07
2018-12-22T11:57:54.042Z,240.53
2018-12-22T12:00:22.862Z,235.50
2018-12-22T12:02:51.661Z,233.37
2018-12-22T12:05:20.364Z,226.77
2018-12-22T12:07:49.140Z,231.00
2018-12-22T12:10:17.972Z,225.40
2018-12-22T12:12:46.844Z,231.70
2018-12-22T12:15:19.451Z,233.27
2018-12-22T12:18:30.479Z,221.70
2018-12-22T12:20:59.236Z,230.03
2018-12-22T12:23:28.132Z,231.43
2018-12-22T12:25:57.033Z,226.23
2018-12-22T12:28:26.612Z,231.33
2018-12-22T12:31:24.501Z,228.30
2018-12-22T12:34:23.436Z,215.93
2018-12-22T12:37:23.208Z,203.67
2018-12-22T12:43:29.973Z,192.50
2018-12-22T12:46:28.788Z,178.17
2018-12-22T12:49:27.493Z,176.20
2018-12-22T12:52:29.440Z,176.07
2018-12-22T12:55:29.141Z,186.73
2018-12-22T12:58:28.063Z,181.07
2018-12-22T13:01:27.083Z,181.10
2018-12-22T13:04:26.945Z,188.33
2018-12-22T13:07:25.701Z,186.70
2018-12-22T13:10:26.066Z,198.53
2018-12-22T13:13:32.847Z,191.53
2018-12-22T13:16:31.593Z,192.07
2018-12-22T13:19:30.063Z,176.00
2018-12-22T13:22:29.738Z,178.83
2018-12-22T13:25:29.636Z,159.13
2018-12-22T13:28:29.065Z,171.27
2018-12-22T13:31:29.954Z,174.87
2018-12-22T13:34:28.799Z,170.87
2018-12-22T13:37:26.736Z,187.90
2018-12-22T13:40:26.275Z,177.03
2018-12-22T13:43:25.025Z,167.83
2018-12-22T13:46:23.956Z,175.93
2018-12-22T13:49:22.077Z,180.80
2018-12-22T13:52:22.652Z,174.37
2018-12-22T13:55:23.372Z,196.83
2018-12-22T13:58:21.280Z,200.43
2018-12-22T14:01:24.160Z,214.67
2018-12-22T14:04:23.992Z,230.53
2018-12-22T14:06:52.722Z,234.30
2018-12-22T14:09:21.438Z,234.13
2018-12-22T14:11:50.235Z,250.73
2018-12-22T14:14:21.886Z,233.43
2018-12-22T14:16:54.667Z,228.37
2018-12-22T14:19:23.604Z,222.23
2018-12-22T14:21:52.640Z,236.80
2018-12-22T14:24:42.047Z,229.87
2018-12-22T14:27:11.516Z,237.87
2018-12-22T14:29:40.203Z,228.23
2018-12-22T14:32:08.949Z,226.07
2018-12-22T14:34:56.073Z,241.23
2018-12-22T14:37:24.830Z,223.30
2018-12-22T14:39:53.500Z,234.30
2018-12-22T14:42:22.353Z,227.50
2018-12-22T14:44:51.278Z,236.90
2018-12-22T14:47:20.172Z,243.53
2018-12-22T14:49:48.908Z,236.63
2018-12-22T14:52:17.649Z,239.20
2018-12-22T14:54:46.593Z,257.47
2018-12-22T14:57:15.660Z,259.03
2018-12-22T14:59:45.742Z,269.47
2018-12-22T15:02:14.527Z,250.43
2018-12-22T15:04:43.276Z,262.07
2018-12-22T15:07:12.044Z,262.63
2018-12-22T15:09:40.745Z,275.30
2018-12-22T15:12:09.551Z,264.53
2018-12-22T15:14:38.250Z,258.47
2018-12-22T15:17:07.604Z,250.27
2018-12-22T15:19:38.354Z,261.37
2018-12-22T15:22:07.103Z,261.53
2018-12-22T15:24:36.467Z,270.43
2018-12-22T15:27:05.200Z,269.73
2018-12-22T15:29:33.896Z,261.93
2018-12-22T15:32:02.585Z,246.83
2018-12-22T15:34:31.293Z,258.77
2018-12-22T15:37:00.066Z,264.47
2018-12-22T15:39:28.759Z,271.20
2018-12-22T15:41:57.510Z,266.23
2018-12-22T15:44:26.249Z,271.80
2018-12-22T15:46:55.000Z,283.13
2018-12-22T15:49:24.215Z,277.13
2018-12-22T15:51:53.018Z,279.67
2018-12-22T15:54:21.774Z,274.70
2018-12-22T15:56:50.470Z,281.77
2018-12-22T15:59:19.673Z,317.67
2018-12-22T16:01:48.375Z,325.17
2018-12-22T16:04:17.079Z,309.70
2018-12-22T16:06:45.876Z,279.30
2018-12-22T16:09:14.607Z,273.07
2018-12-22T16:11:43.326Z,266.13
2018-12-22T16:14:12.076Z,277.83
2018-12-22T16:16:40.789Z,265.03
2018-12-22T16:19:09.734Z,267.87
2018-12-22T16:21:38.501Z,280.93
2018-12-22T16:24:07.284Z,267.23
2018-12-22T16:26:36.122Z,271.30
2018-12-22T16:29:11.564Z,281.83
2018-12-22T16:31:40.256Z,271.50
2018-12-22T16:34:09.022Z,272.77
2018-12-22T16:36:38.349Z,255.40
2018-12-22T16:39:08.807Z,278.27
2018-12-22T16:41:37.750Z,275.37
2018-12-22T16:44:09.655Z,264.27
2018-12-22T16:46:38.420Z,278.97
2018-12-22T16:49:07.197Z,268.10
2018-12-22T16:51:35.969Z,262.93
2018-12-22T16:54:05.228Z,255.13
2018-12-22T16:56:33.979Z,254.73
2018-12-22T16:59:02.987Z,283.40
2018-12-22T17:01:41.574Z,263.53
2018-12-22T17:04:10.381Z,255.87
2018-12-22T17:06:40.631Z,282.63
2018-12-22T17:09:11.050Z,288.77
2018-12-22T17:11:40.100Z,287.50
2018-12-22T17:14:08.892Z,260.50
2018-12-22T17:16:38.010Z,257.27
2018-12-22T17:19:07.135Z,255.17
2018-12-22T17:21:43.012Z,234.70
2018-12-22T17:24:16.603Z,245.07
2018-12-22T17:26:46.189Z,228.10
2018-12-22T17:29:14.971Z,220.57
2018-12-22T17:31:44.095Z,227.67
2018-12-22T17:34:13.193Z,222.17
2018-12-22T17:36:41.975Z,241.77
2018-12-22T17:39:12.787Z,245.67
2018-12-22T17:41:42.484Z,244.90
2018-12-22T17:44:11.249Z,225.80
2018-12-22T17:46:40.068Z,239.67
2018-12-22T17:49:08.795Z,221.53
2018-12-22T17:51:37.588Z,231.23
2018-12-22T17:54:06.377Z,205.33
2018-12-22T17:56:35.147Z,213.87
2018-12-22T17:59:03.922Z,218.83
2018-12-22T18:01:33.100Z,218.50
2018-12-22T18:04:01.864Z,213.30
2018-12-22T18:06:30.579Z,221.00
2018-12-22T18:08:59.995Z,201.53
2018-12-22T18:11:28.747Z,201.77
2018-12-22T18:13:57.464Z,210.47
2018-12-22T18:16:26.290Z,219.17
2018-12-22T18:18:55.018Z,211.47
2018-12-22T18:21:23.963Z,208.50
2018-12-22T18:23:53.767Z,221.03
2018-12-22T18:26:22.572Z,219.80
2018-12-22T18:28:51.352Z,222.03
2018-12-22T18:31:20.121Z,197.23
2018-12-22T18:33:48.950Z,231.70
2018-12-22T18:36:17.801Z,224.50
2018-12-22T18:38:51.747Z,215.33
2018-12-22T18:41:20.586Z,209.93
2018-12-22T18:43:49.353Z,221.13
2018-12-22T18:46:18.018Z,199.77
2018-12-22T18:48:46.745Z,207.33
2018-12-22T18:51:15.461Z,234.00
2018-12-22T18:53:44.203Z,220.17
2018-12-22T18:56:13.020Z,212.17
2018-12-22T18:58:41.675Z,229.23
2018-12-22T19:01:10.395Z,271.87
2018-12-22T19:03:44.755Z,280.73
2018-12-22T19:06:09.886Z,289.33
2018-12-22T19:08:38.744Z,315.23
2018-12-22T19:11:10.339Z,309.90
2018-12-22T19:13:39.107Z,310.97
2018-12-22T19:16:07.845Z,326.90
2018-12-22T19:18:36.752Z,320.57
2018-12-22T19:21:05.504Z,307.53
2018-12-22T19:23:34.326Z,321.70
2018-12-22T19:26:03.090Z,320.23
2018-12-22T19:28:31.859Z,320.73
2018-12-22T19:31:00.588Z,336.27
2018-12-22T19:33:29.351Z,323.70
2018-12-22T19:35:58.113Z,330.70
2018-12-22T19:38:26.808Z,326.13
2018-12-22T19:40:55.522Z,329.30
2018-12-22T19:43:24.319Z,312.10
2018-12-22T19:45:53.075Z,330.80
2018-12-22T19:48:21.861Z,333.77
2018-12-22T19:50:50.652Z,310.13
2018-12-22T19:53:19.868Z,303.27
2018-12-22T19:55:48.649Z,309.87
2018-12-22T19:58:17.465Z,306.20
2018-12-22T20:00:46.159Z,327.30
2018-12-22T20:03:14.965Z,326.33
2018-12-22T20:05:43.800Z,313.63
2018-12-22T20:08:12.622Z,300.83
2018-12-22T20:10:41.314Z,298.53
2018-12-22T20:13:10.149Z,271.87
2018-12-22T20:15:38.905Z,279.47
2018-12-22T20:18:07.641Z,267.50
2018-12-22T20:20:36.353Z,277.00
2018-12-22T20:23:05.218Z,277.33
2018-12-22T20:25:34.032Z,316.57
2018-12-22T20:28:02.832Z,293.43
2018-12-22T20:30:31.640Z,283.77
2018-12-22T20:33:00.431Z,285.50
2018-12-22T20:35:29.279Z,285.43
2018-12-22T20:37:58.165Z,291.93
2018-12-22T20:40:26.843Z,283.03
2018-12-22T20:42:55.645Z,293.93
2018-12-22T20:45:24.414Z,306.60
2018-12-22T20:47:53.505Z,297.07
2018-12-22T20:50:22.416Z,286.53
2018-12-22T20:52:51.190Z,289.67
2018-12-22T20:55:21.141Z,285.33
2018-12-22T20:57:50.623Z,281.63
2018-12-22T21:00:20.148Z,288.50
2018-12-22T21:02:49.072Z,288.97
2018-12-22T21:05:19.023Z,293.50
2018-12-22T21:07:48.498Z,278.60
2018-12-22T21:10:17.675Z,285.63
2018-12-22T21:12:46.488Z,289.33
2018-12-22T21:15:15.972Z,296.17
2018-12-22T21:17:44.983Z,284.67
2018-12-22T21:20:13.688Z,286.53
2018-12-22T21:22:42.400Z,277.23
2018-12-22T21:25:11.190Z,261.70
2018-12-22T21:27:39.931Z,275.47
2018-12-22T21:30:09.448Z,279.27
2018-12-22T21:32:38.271Z,294.73
2018-12-22T21:35:07.087Z,273.47
2018-12-22T21:37:35.869Z,297.50
2018-12-22T21:40:06.086Z,294.63
2018-12-22T21:42:39.907Z,275.87
2018-12-22T21:45:08.733Z,280.63
2018-12-22T21:47:37.456Z,280.43
2018-12-22T21:50:06.716Z,282.90
2018-12-22T21:52:35.449Z,272.87
2018-12-22T21:55:04.149Z,291.53
2018-12-22T21:57:32.902Z,290.90
2018-12-22T22:00:01.703Z,271.83
2018-12-22T22:02:30.424Z,275.23
2018-12-22T22:04:59.266Z,268.50
2018-12-22T22:07:28.004Z,282.67
2018-12-22T22:09:57.555Z,272.03
2018-12-22T22:12:26.252Z,271.17
2018-12-22T22:14:54.964Z,286.83
2018-12-22T22:17:23.844Z,278.63
2018-12-22T22:19:52.669Z,271.07
2018-12-22T22:22:21.351Z,281.60
2018-12-22T22:24:50.118Z,288.27
2018-12-22T22:27:18.931Z,279.93
2018-12-22T22:29:47.748Z,295.50
2018-12-22T22:32:16.618Z,277.60
2018-12-22T22:34:45.635Z,282.60
2018-12-22T22:37:14.950Z,276.10
2018-12-22T22:39:43.638Z,288.63
2018-12-22T22:42:12.350Z,303.83
2018-12-22T22:44:41.018Z,276.07
2018-12-22T22:47:09.934Z,260.80
2018-12-22T22:49:38.660Z,260.27
2018-12-22T22:52:09.654Z,255.80
2018-12-22T22:54:38.618Z,255.60
2018-12-22T22:57:07.465Z,259.63
2018-12-22T22:59:36.275Z,238.53
2018-12-22T23:02:04.948Z,263.63
2018-12-22T23:04:33.735Z,269.33
2018-12-22T23:07:02.704Z,262.27
2018-12-22T23:09:34.479Z,265.17
2018-12-22T23:12:03.294Z,254.60
2018-12-22T23:14:32.040Z,267.00
2018-12-22T23:17:00.768Z,255.37
2018-12-22T23:19:29.506Z,287.93
2018-12-22T23:21:58.811Z,274.57
2018-12-22T23:24:27.632Z,302.03
2018-12-22T23:26:57.853Z,290.13
2018-12-22T23:29:26.594Z,309.03
2018-12-22T23:31:55.456Z,330.20
2018-12-22T23:34:28.455Z,316.17
2018-12-22T23:36:57.179Z,325.20
2018-12-22T23:39:25.872Z,302.77
2018-12-22T23:41:56.767Z,300.57
2018-12-22T23:44:25.974Z,326.90
2018-12-22T23:46:54.798Z,287.13
2018-12-22T23:49:23.693Z,309.57
2018-12-22T23:51:54.440Z,313.27
2018-12-22T23:54:23.124Z,308.53
2018-12-22T23:56:51.881Z,303.37
2018-12-22T23:59:20.914Z,305.97
